createdAt,value
2022-12-19T00:01:07.051Z,9.51
2022-12-19T00:03:35.071Z,9.56
2022-12-19T00:06:05.605Z,9.57
2022-12-19T00:08:34.487Z,9.69
2022-12-19T00:11:04.044Z,9.73
2022-12-19T00:13:40.797Z,9.72
2022-12-19T00:16:11.996Z,9.77
2022-12-19T00:18:40.469Z,9.77
2022-12-19T00:21:12.427Z,9.83
2022-12-19T00:23:40.593Z,9.79
2022-12-19T00:26:11.220Z,9.89
2022-12-19T00:28:39.617Z,9.88
2022-12-19T00:31:07.776Z,9.90
2022-12-19T00:33:37.476Z,9.97
2022-12-19T00:36:14.182Z,10.02
2022-12-19T00:38:45.418Z,10.03
2022-12-19T00:41:15.061Z,10.07
2022-12-19T00:43:44.077Z,10.10
2022-12-19T00:46:13.924Z,10.15
2022-12-19T00:48:43.959Z,10.18
2022-12-19T00:51:15.800Z,10.27
2022-12-19T00:53:44.310Z,10.26
2022-12-19T00:56:14.379Z,10.25
2022-12-19T00:58:46.844Z,10.27
2022-12-19T01:01:17.829Z,10.26
2022-12-19T01:04:04.244Z,10.30
2022-12-19T01:06:35.659Z,10.33
2022-12-19T01:09:04.130Z,10.43
2022-12-19T01:11:49.701Z,10.42
2022-12-19T01:14:22.958Z,10.46
2022-12-19T01:16:51.527Z,10.45
2022-12-19T01:19:19.934Z,10.56
2022-12-19T01:21:49.715Z,10.54
2022-12-19T01:24:18.969Z,10.53
2022-12-19T01:26:50.747Z,10.56
2022-12-19T01:29:19.001Z,10.55
2022-12-19T01:31:48.931Z,10.60
2022-12-19T01:34:17.141Z,10.57
2022-12-19T01:36:45.220Z,10.60
2022-12-19T01:39:14.628Z,10.65
2022-12-19T01:41:42.554Z,10.69
2022-12-19T01:44:12.775Z,10.70
2022-12-19T01:47:30.915Z,10.72
2022-12-19T01:49:59.091Z,10.67
2022-12-19T01:52:27.305Z,10.75
2022-12-19T01:54:58.047Z,10.82
2022-12-19T01:57:27.116Z,10.79
2022-12-19T01:59:58.536Z,10.80
2022-12-19T02:02:30.644Z,10.81
2022-12-19T02:04:58.821Z,10.82
2022-12-19T02:07:27.682Z,10.79
2022-12-19T02:09:58.039Z,10.84
2022-12-19T02:12:38.379Z,10.93
2022-12-19T02:15:10.923Z,10.89
2022-12-19T02:17:52.736Z,10.91
2022-12-19T02:20:52.247Z,10.95
2022-12-19T02:23:41.564Z,11.03
2022-12-19T02:26:38.979Z,11.08
2022-12-19T02:29:22.995Z,11.09
2022-12-19T02:31:59.705Z,11.08
2022-12-19T02:34:34.349Z,11.13
2022-12-19T02:37:10.039Z,11.17
2022-12-19T02:39:46.623Z,11.15
2022-12-19T02:42:23.649Z,11.16
2022-12-19T02:44:55.621Z,11.20
2022-12-19T02:47:25.853Z,11.23
2022-12-19T02:49:53.913Z,11.19
2022-12-19T02:52:49.951Z,11.19
2022-12-19T02:55:25.457Z,11.17
2022-12-19T02:58:35.088Z,11.18
2022-12-19T03:01:15.166Z,11.23
2022-12-19T03:03:56.515Z,11.21
2022-12-19T03:06:32.996Z,11.18
2022-12-19T03:09:08.208Z,11.21
2022-12-19T03:11:40.145Z,11.20
2022-12-19T03:14:12.250Z,11.17
2022-12-19T03:16:40.997Z,11.17
2022-12-19T03:19:13.047Z,11.22
2022-12-19T03:21:44.318Z,11.21
2022-12-19T03:24:14.326Z,11.21
2022-12-19T03:26:49.416Z,11.20
2022-12-19T03:29:23.887Z,11.22
2022-12-19T03:31:53.252Z,11.29
2022-12-19T03:34:27.880Z,11.27
2022-12-19T03:36:58.267Z,11.29
2022-12-19T03:39:29.502Z,11.31
2022-12-19T03:42:17.073Z,11.26
2022-12-19T03:44:45.596Z,11.26
2022-12-19T03:47:18.478Z,11.32
2022-12-19T03:49:48.965Z,11.29
2022-12-19T03:52:27.483Z,11.27
2022-12-19T03:55:05.502Z,11.29
2022-12-19T03:57:40.898Z,11.31
2022-12-19T04:00:12.815Z,11.33
2022-12-19T04:02:46.089Z,11.32
2022-12-19T04:05:19.273Z,11.35
2022-12-19T04:07:49.145Z,11.34
2022-12-19T04:10:21.485Z,11.37
2022-12-19T04:12:55.367Z,11.32
2022-12-19T04:15:30.676Z,11.39
2022-12-19T04:18:00.853Z,11.36
2022-12-19T04:20:31.498Z,11.40
2022-12-19T04:23:05.011Z,11.29
2022-12-19T04:25:37.987Z,11.39
2022-12-19T04:28:14.203Z,11.36
2022-12-19T04:30:44.066Z,11.41
2022-12-19T04:33:12.166Z,11.42
2022-12-19T04:35:41.579Z,11.37
2022-12-19T04:38:11.762Z,11.42
2022-12-19T04:40:41.767Z,11.43
2022-12-19T04:43:10.305Z,11.48
2022-12-19T04:45:38.333Z,11.47
2022-12-19T04:48:08.132Z,11.47
2022-12-19T04:50:37.353Z,11.50
2022-12-19T04:53:07.667Z,11.47
2022-12-19T04:55:36.799Z,11.48
2022-12-19T04:58:05.817Z,11.48
2022-12-19T05:00:34.408Z,11.51
2022-12-19T05:03:02.653Z,11.51
2022-12-19T05:05:30.949Z,11.48
2022-12-19T05:07:58.966Z,11.54
2022-12-19T05:10:28.443Z,11.61
2022-12-19T05:12:56.460Z,11.56
2022-12-19T05:15:24.630Z,11.56
2022-12-19T05:17:52.768Z,11.55
2022-12-19T05:20:20.851Z,11.59
2022-12-19T05:22:48.885Z,11.52
2022-12-19T05:25:16.960Z,11.57
2022-12-19T05:27:46.345Z,11.53
2022-12-19T05:30:14.886Z,11.57
2022-12-19T05:32:42.925Z,11.59
2022-12-19T05:35:10.909Z,11.60
2022-12-19T05:37:38.937Z,11.60
2022-12-19T05:40:08.173Z,11.58
2022-12-19T05:42:36.239Z,11.62
2022-12-19T05:45:06.121Z,11.62
2022-12-19T05:47:34.089Z,11.65
2022-12-19T05:50:02.128Z,11.69
2022-12-19T05:52:30.198Z,11.64
2022-12-19T05:54:58.300Z,11.65
2022-12-19T05:57:27.118Z,11.60
2022-12-19T05:59:55.126Z,11.62
2022-12-19T06:02:24.866Z,11.67
2022-12-19T06:04:52.976Z,11.65
2022-12-19T06:07:21.424Z,11.62
2022-12-19T06:09:49.493Z,11.62
2022-12-19T06:12:17.527Z,11.64
2022-12-19T06:14:45.513Z,11.59
2022-12-19T06:17:13.535Z,11.60
2022-12-19T06:19:42.896Z,11.64
2022-12-19T06:22:10.933Z,11.62
2022-12-19T06:24:41.929Z,11.58
2022-12-19T06:27:10.034Z,11.67
2022-12-19T06:29:38.047Z,11.67
2022-12-19T06:32:06.299Z,11.61
2022-12-19T06:35:03.246Z,11.65
2022-12-19T06:37:26.273Z,11.63
2022-12-19T06:39:54.314Z,11.68
2022-12-19T06:42:24.320Z,11.69
2022-12-19T06:48:59.058Z,11.69
2022-12-19T06:51:27.023Z,11.69
2022-12-19T06:53:56.689Z,11.69
2022-12-19T06:56:25.052Z,11.68
2022-12-19T06:58:53.091Z,11.67
2022-12-19T07:01:24.579Z,11.72
2022-12-19T07:03:53.268Z,11.75
2022-12-19T07:06:21.564Z,11.71
2022-12-19T07:08:49.688Z,11.68
2022-12-19T07:11:19.093Z,11.69
2022-12-19T07:13:47.124Z,11.74
2022-12-19T07:16:15.176Z,11.70
2022-12-19T07:18:46.166Z,11.73
2022-12-19T07:21:14.243Z,11.77
2022-12-19T07:23:42.663Z,11.73
2022-12-19T07:26:10.953Z,11.73
2022-12-19T07:28:40.653Z,11.67
2022-12-19T07:31:08.652Z,11.73
2022-12-19T07:33:36.800Z,11.78
2022-12-19T07:36:05.328Z,11.83
2022-12-19T07:38:33.281Z,11.85
2022-12-19T07:41:02.320Z,11.85
2022-12-19T07:43:30.612Z,11.85
2022-12-19T07:46:00.025Z,11.87
2022-12-19T07:48:29.119Z,11.90
2022-12-19T07:50:57.103Z,11.88
2022-12-19T07:53:25.579Z,11.89
2022-12-19T07:55:54.112Z,11.88
2022-12-19T07:58:22.133Z,11.84
2022-12-19T08:00:55.464Z,11.81
2022-12-19T08:03:25.341Z,11.82
2022-12-19T08:05:53.408Z,11.77
2022-12-19T08:08:21.521Z,11.76
2022-12-19T08:10:49.555Z,11.79
2022-12-19T08:13:17.555Z,11.79
2022-12-19T08:15:45.833Z,11.74
2022-12-19T08:18:13.773Z,11.77
2022-12-19T08:20:45.496Z,11.85
2022-12-19T08:23:13.569Z,11.83
2022-12-19T08:25:41.638Z,11.80
2022-12-19T08:28:09.737Z,11.80
2022-12-19T08:30:39.724Z,11.85
2022-12-19T08:33:08.548Z,11.82
2022-12-19T08:35:37.038Z,11.82
2022-12-19T08:38:06.621Z,11.81
2022-12-19T08:40:35.335Z,11.85
2022-12-19T08:43:03.389Z,11.81
2022-12-19T08:45:31.496Z,11.77
2022-12-19T08:47:59.502Z,11.79
2022-12-19T08:50:27.576Z,11.79
2022-12-19T08:52:55.619Z,11.84
2022-12-19T08:55:25.490Z,11.81
2022-12-19T08:57:55.552Z,11.76
2022-12-19T09:00:24.496Z,11.84
2022-12-19T09:02:53.779Z,11.78
2022-12-19T09:06:00.497Z,11.77
2022-12-19T09:08:09.923Z,11.86
2022-12-19T09:10:39.662Z,11.82
2022-12-19T09:13:07.606Z,11.81
2022-12-19T09:15:35.556Z,11.79
2022-12-19T09:18:05.375Z,11.82
2022-12-19T09:20:33.676Z,11.82
2022-12-19T09:23:01.881Z,11.84
2022-12-19T09:25:29.834Z,11.84
2022-12-19T09:28:27.044Z,11.87
2022-12-19T09:30:47.591Z,11.90
2022-12-19T09:33:16.103Z,11.85
2022-12-19T09:35:51.195Z,11.85
2022-12-19T09:38:20.881Z,11.87
2022-12-19T09:41:00.149Z,11.92
2022-12-19T09:43:41.580Z,11.90
2022-12-19T09:46:17.642Z,11.84
2022-12-19T09:48:54.253Z,11.89
2022-12-19T09:51:34.265Z,11.88
2022-12-19T09:54:07.262Z,11.86
2022-12-19T09:56:45.759Z,11.82
2022-12-19T09:59:33.215Z,11.82
2022-12-19T10:02:27.180Z,11.79
2022-12-19T10:05:17.815Z,11.80
2022-12-19T10:08:08.330Z,11.80
2022-12-19T10:12:42.763Z,11.79
2022-12-19T10:13:53.883Z,11.79
2022-12-19T10:16:32.807Z,11.79
2022-12-19T10:19:04.068Z,11.76
2022-12-19T10:24:41.863Z,11.76
2022-12-19T10:27:19.061Z,11.75
2022-12-19T10:30:02.380Z,11.76
2022-12-19T10:32:40.773Z,11.77
2022-12-19T10:35:14.758Z,11.78
2022-12-19T10:37:52.200Z,11.81
2022-12-19T10:40:29.454Z,11.78
2022-12-19T10:43:10.334Z,11.76
2022-12-19T10:45:44.151Z,11.75
2022-12-19T10:48:20.881Z,11.74
2022-12-19T10:50:53.634Z,11.78
2022-12-19T10:53:27.790Z,11.70
2022-12-19T10:56:01.006Z,11.75
2022-12-19T10:58:33.674Z,11.77
2022-12-19T11:01:14.531Z,11.72
2022-12-19T11:03:46.945Z,11.70
2022-12-19T11:06:49.563Z,11.71
2022-12-19T11:09:24.091Z,11.63
2022-12-19T11:13:20.388Z,11.64
2022-12-19T11:20:48.582Z,11.61
2022-12-19T11:26:32.403Z,11.65
2022-12-19T11:29:16.963Z,11.60
2022-12-19T11:29:36.673Z,11.65
2022-12-19T11:29:38.941Z,11.62
2022-12-19T11:30:44.319Z,11.65
2022-12-19T11:34:38.399Z,11.63
2022-12-19T11:37:16.989Z,11.61
2022-12-19T11:39:49.537Z,11.59
2022-12-19T11:42:24.772Z,11.57
2022-12-19T11:45:01.617Z,11.60
2022-12-19T11:47:38.210Z,11.61
2022-12-19T11:50:16.405Z,11.62
2022-12-19T11:53:14.648Z,11.61
2022-12-19T11:55:45.745Z,11.63
2022-12-19T11:58:14.554Z,11.64
2022-12-19T12:00:51.234Z,11.64
2022-12-19T12:03:49.552Z,11.64
2022-12-19T12:06:34.506Z,11.68
2022-12-19T12:11:45.111Z,11.69
2022-12-19T12:19:21.863Z,11.69
2022-12-19T12:24:09.004Z,11.69
2022-12-19T12:30:47.674Z,11.66
2022-12-19T12:31:16.048Z,11.75
2022-12-19T12:31:42.778Z,11.69
2022-12-19T12:32:03.747Z,11.68
2022-12-19T12:32:04.346Z,11.70
2022-12-19T12:35:28.677Z,11.67
2022-12-19T12:38:12.271Z,11.73
2022-12-19T12:39:24.306Z,11.73
2022-12-19T12:42:06.512Z,11.81
2022-12-19T12:44:42.936Z,11.78
2022-12-19T12:47:20.464Z,11.80
2022-12-19T12:49:52.803Z,11.85
2022-12-19T12:52:25.206Z,11.85
2022-12-19T12:54:54.732Z,11.83
2022-12-19T12:57:37.050Z,11.86
2022-12-19T13:00:21.987Z,11.88
2022-12-19T13:02:55.628Z,11.86
2022-12-19T13:05:52.077Z,11.92
2022-12-19T13:08:40.826Z,11.97
2022-12-19T13:11:36.042Z,11.96
2022-12-19T13:14:06.353Z,11.97
2022-12-19T13:16:53.027Z,11.96
2022-12-19T13:19:28.551Z,12.00
2022-12-19T13:22:40.445Z,11.98
2022-12-19T13:25:26.816Z,11.96
2022-12-19T13:27:58.770Z,11.97
2022-12-19T13:30:31.061Z,11.99
2022-12-19T13:33:11.011Z,12.01
2022-12-19T13:36:57.698Z,12.03
2022-12-19T13:39:54.781Z,12.07
2022-12-19T13:42:01.274Z,12.06
2022-12-19T13:44:30.182Z,12.07
2022-12-19T13:47:00.000Z,12.06
2022-12-19T13:49:34.840Z,12.09
2022-12-19T13:52:05.478Z,12.12
2022-12-19T13:54:38.164Z,12.14
2022-12-19T13:57:22.113Z,12.11
2022-12-19T13:59:59.946Z,12.15
2022-12-19T14:02:43.893Z,12.15
2022-12-19T14:05:34.028Z,12.20
2022-12-19T14:08:20.287Z,12.18
2022-12-19T14:11:35.466Z,12.20
2022-12-19T14:14:10.743Z,12.25
2022-12-19T14:16:44.981Z,12.20
2022-12-19T14:19:25.269Z,12.22
2022-12-19T14:22:11.469Z,12.22
2022-12-19T14:24:42.143Z,12.18
2022-12-19T14:28:21.003Z,12.24
2022-12-19T14:30:29.716Z,12.19
2022-12-19T14:33:39.399Z,12.16
2022-12-19T14:36:12.519Z,12.18
2022-12-19T14:39:27.055Z,12.14
2022-12-19T14:42:01.446Z,12.14
2022-12-19T14:53:51.783Z,12.15
2022-12-19T14:54:12.863Z,12.18
2022-12-19T14:54:26.180Z,12.23
2022-12-19T14:54:28.465Z,12.19
2022-12-19T14:56:33.630Z,12.21
2022-12-19T14:59:01.571Z,12.20
2022-12-19T15:01:33.267Z,12.18
2022-12-19T15:04:52.057Z,12.19
2022-12-19T15:07:08.032Z,12.19
2022-12-19T15:11:08.134Z,12.18
2022-12-19T15:14:48.217Z,12.24
2022-12-19T15:15:59.192Z,12.22
2022-12-19T15:18:34.884Z,12.23
2022-12-19T15:21:05.518Z,12.26
2022-12-19T15:23:33.845Z,12.25
2022-12-19T15:26:06.912Z,12.18
2022-12-19T15:28:41.496Z,12.24
2022-12-19T15:31:21.773Z,12.18
2022-12-19T15:34:32.505Z,12.15
2022-12-19T15:36:39.149Z,12.18
2022-12-19T15:39:07.101Z,12.13
2022-12-19T15:41:36.846Z,12.16
2022-12-19T15:44:09.891Z,12.16
2022-12-19T15:46:44.477Z,12.15
2022-12-19T15:49:18.078Z,12.11
2022-12-19T15:51:46.865Z,12.10
2022-12-19T15:54:48.019Z,12.16
2022-12-19T15:57:04.684Z,12.11
2022-12-19T15:59:38.104Z,12.11
2022-12-19T16:02:17.524Z,12.08
2022-12-19T16:04:47.451Z,12.08
2022-12-19T16:07:17.198Z,12.06
2022-12-19T16:09:45.285Z,12.09
2022-12-19T16:12:19.339Z,12.12
2022-12-19T16:14:50.490Z,12.14
2022-12-19T16:17:22.246Z,12.15
2022-12-19T16:19:51.591Z,12.14
2022-12-19T16:22:22.537Z,12.09
2022-12-19T16:24:50.857Z,12.20
2022-12-19T16:27:24.154Z,12.20
2022-12-19T16:29:52.882Z,12.17
2022-12-19T16:32:23.964Z,12.19
2022-12-19T16:34:52.676Z,12.19
2022-12-19T16:37:27.169Z,12.24
2022-12-19T16:39:58.339Z,12.24
2022-12-19T16:42:28.378Z,12.25
2022-12-19T16:44:56.802Z,12.24
2022-12-19T16:47:24.858Z,12.33
2022-12-19T16:49:53.133Z,12.31
2022-12-19T16:52:21.092Z,12.29
2022-12-19T16:54:49.296Z,12.35
2022-12-19T16:57:20.885Z,12.30
2022-12-19T16:59:51.399Z,12.34
2022-12-19T17:02:44.738Z,12.33
2022-12-19T17:05:18.616Z,12.36
2022-12-19T17:07:47.081Z,12.34
2022-12-19T17:10:16.181Z,12.39
2022-12-19T17:12:47.919Z,12.37
2022-12-19T17:15:26.327Z,12.46
2022-12-19T17:17:57.066Z,12.41
2022-12-19T17:20:27.997Z,12.40
2022-12-19T17:22:56.065Z,12.48
2022-12-19T17:25:25.673Z,12.46
2022-12-19T17:27:55.371Z,12.42
2022-12-19T17:30:24.828Z,12.38
2022-12-19T17:32:56.271Z,12.40
2022-12-19T17:35:28.184Z,12.44
2022-12-19T17:37:58.231Z,12.40
2022-12-19T17:40:28.858Z,12.44
2022-12-19T17:42:57.503Z,12.43
2022-12-19T17:45:29.434Z,12.47
2022-12-19T17:48:03.097Z,12.42
2022-12-19T17:50:35.871Z,12.44
2022-12-19T17:53:03.964Z,12.40
2022-12-19T17:55:33.402Z,12.47
2022-12-19T17:58:01.488Z,12.47
2022-12-19T18:00:33.551Z,12.44
2022-12-19T18:03:27.829Z,12.45
2022-12-19T18:05:57.188Z,12.46
2022-12-19T18:08:27.951Z,12.46
2022-12-19T18:10:57.519Z,12.46
2022-12-19T18:13:50.845Z,12.48
2022-12-19T18:16:23.799Z,12.48
2022-12-19T18:18:52.014Z,12.49
2022-12-19T18:21:24.200Z,12.50
2022-12-19T18:23:52.478Z,12.46
2022-12-19T18:26:20.523Z,12.51
2022-12-19T18:28:49.937Z,12.53
2022-12-19T18:31:23.112Z,12.51
2022-12-19T18:33:51.830Z,12.53
2022-12-19T18:36:21.917Z,12.53
2022-12-19T18:39:22.455Z,12.48
2022-12-19T18:41:51.239Z,12.48
2022-12-19T18:44:19.650Z,12.43
2022-12-19T18:46:50.478Z,12.46
2022-12-19T18:49:19.677Z,12.49
2022-12-19T18:51:48.199Z,12.52
2022-12-19T18:54:20.959Z,12.50
2022-12-19T18:56:49.420Z,12.55
2022-12-19T18:59:17.547Z,12.54
2022-12-19T19:01:47.733Z,12.52
2022-12-19T19:09:11.970Z,12.39
2022-12-19T19:12:02.479Z,12.37
2022-12-19T19:14:30.756Z,12.40
2022-12-19T19:16:58.767Z,12.28
2022-12-19T19:19:26.978Z,12.32
2022-12-19T19:21:55.491Z,12.25
2022-12-19T19:24:25.839Z,12.24
2022-12-19T19:26:53.918Z,12.25
2022-12-19T19:29:21.917Z,12.20
2022-12-19T19:31:53.810Z,12.19
2022-12-19T19:34:26.866Z,12.20
2022-12-19T19:36:58.303Z,12.20
2022-12-19T19:39:28.750Z,12.16
2022-12-19T19:41:57.152Z,12.16
2022-12-19T19:44:25.181Z,12.19
2022-12-19T19:46:53.470Z,12.16
2022-12-19T19:49:21.971Z,12.16
2022-12-19T19:51:50.111Z,12.14
2022-12-19T19:54:19.261Z,12.17
2022-12-19T19:57:37.715Z,12.15
2022-12-19T20:00:09.838Z,12.19
2022-12-19T20:02:43.586Z,12.14
2022-12-19T20:05:12.372Z,12.14
2022-12-19T20:07:40.596Z,12.09
2022-12-19T20:10:10.616Z,12.13
2022-12-19T20:12:39.741Z,12.05
2022-12-19T20:15:10.940Z,12.10
2022-12-19T20:17:39.045Z,12.14
2022-12-19T20:20:08.633Z,12.10
2022-12-19T20:22:36.743Z,12.10
2022-12-19T20:25:05.171Z,12.09
2022-12-19T20:27:33.173Z,12.12
2022-12-19T20:30:01.293Z,12.20
2022-12-19T20:32:31.537Z,12.14
2022-12-19T20:34:59.775Z,12.13
2022-12-19T20:37:27.830Z,12.17
2022-12-19T20:39:55.871Z,12.20
2022-12-19T20:42:23.866Z,12.13
2022-12-19T20:45:42.842Z,12.16
2022-12-19T20:48:12.554Z,12.12
2022-12-19T20:51:30.699Z,12.09
2022-12-19T20:53:58.828Z,12.13
2022-12-19T20:56:27.006Z,12.20
2022-12-19T20:58:55.399Z,12.20
2022-12-19T21:01:25.628Z,12.27
2022-12-19T21:03:55.255Z,12.28
2022-12-19T21:06:26.997Z,12.32
2022-12-19T21:08:57.080Z,12.34
2022-12-19T21:11:26.731Z,12.37
2022-12-19T21:13:54.967Z,12.38
2022-12-19T21:16:24.772Z,12.36
2022-12-19T21:18:53.249Z,12.41
2022-12-19T21:21:24.944Z,12.44
2022-12-19T21:23:54.014Z,12.49
2022-12-19T21:26:23.785Z,12.46
2022-12-19T21:28:52.224Z,12.45
2022-12-19T21:31:22.102Z,12.47
2022-12-19T21:33:51.231Z,12.46
2022-12-19T21:36:23.986Z,12.44
2022-12-19T21:38:54.540Z,12.47
2022-12-19T21:41:23.191Z,12.51
2022-12-19T21:43:53.979Z,12.47
2022-12-19T21:46:24.241Z,12.47
2022-12-19T21:48:54.367Z,12.40
2022-12-19T21:51:26.333Z,12.40
2022-12-19T21:53:55.962Z,12.48
2022-12-19T21:56:26.381Z,12.44
2022-12-19T21:58:56.650Z,12.44
2022-12-19T22:01:26.196Z,12.41
2022-12-19T22:03:58.710Z,12.47
2022-12-19T22:06:31.170Z,12.44
2022-12-19T22:08:59.613Z,12.36
2022-12-19T22:11:28.427Z,12.41
2022-12-19T22:13:57.511Z,12.42
2022-12-19T22:16:25.505Z,12.37
2022-12-19T22:18:55.010Z,12.41
2022-12-19T22:21:23.380Z,12.43
2022-12-19T22:23:57.750Z,12.44
2022-12-19T22:26:27.140Z,12.39
2022-12-19T22:28:56.378Z,12.44
2022-12-19T22:31:26.497Z,12.39
2022-12-19T22:33:56.332Z,12.42
2022-12-19T22:36:28.679Z,12.42
2022-12-19T22:39:00.226Z,12.41
2022-12-19T22:41:28.872Z,12.49
2022-12-19T22:43:57.949Z,12.45
2022-12-19T22:46:27.512Z,12.43
2022-12-19T22:48:57.790Z,12.52
2022-12-19T22:51:26.716Z,12.50
2022-12-19T22:53:55.451Z,12.55
2022-12-19T22:56:27.381Z,12.47
2022-12-19T22:58:57.703Z,12.53
2022-12-19T23:01:27.883Z,12.59
2022-12-19T23:03:57.866Z,12.51
2022-12-19T23:06:27.944Z,12.56
2022-12-19T23:08:56.438Z,12.58
2022-12-19T23:11:29.167Z,12.58
2022-12-19T23:13:57.382Z,12.58
2022-12-19T23:16:25.538Z,12.62
2022-12-19T23:18:53.618Z,12.61
2022-12-19T23:21:23.961Z,12.61
2022-12-19T23:23:53.857Z,12.63
2022-12-19T23:26:28.677Z,12.59
2022-12-19T23:28:58.649Z,12.63
2022-12-19T23:31:28.118Z,12.65
2022-12-19T23:33:58.498Z,12.62
2022-12-19T23:37:08.395Z,12.59
2022-12-19T23:39:15.459Z,12.62
2022-12-19T23:41:44.919Z,12.54
2022-12-19T23:44:13.228Z,12.57
2022-12-19T23:46:42.325Z,12.56
2022-12-19T23:49:11.395Z,12.53
2022-12-19T23:51:39.522Z,12.49
2022-12-19T23:54:08.770Z,12.51
2022-12-19T23:56:37.268Z,12.46
2022-12-19T23:59:06.827Z,12.45
